sensor_id;sensor_type;location;lat;lon;timestamp;P1;durP1;ratioP1;P2;durP2;ratioP2
32321;SDS011;61553;48.994;8.940;2022-09-13T00:01:13;5.70;;;3.17;;
32321;SDS011;61553;48.994;8.940;2022-09-13T00:03:39;5.32;;;3.83;;
32321;SDS011;61553;48.994;8.940;2022-09-13T00:06:16;6.00;;;3.78;;
32321;SDS011;61553;48.994;8.940;2022-09-13T00:08:43;6.72;;;4.30;;
32321;SDS011;61553;48.994;8.940;2022-09-13T00:11:14;5.53;;;3.78;;
32321;SDS011;61553;48.994;8.940;2022-09-13T00:13:47;7.07;;;4.03;;
32321;SDS011;61553;48.994;8.940;2022-09-13T00:16:16;5.65;;;4.03;;
32321;SDS011;61553;48.994;8.940;2022-09-13T00:18:43;6.57;;;3.85;;
32321;SDS011;61553;48.994;8.940;2022-09-13T00:21:15;6.30;;;3.70;;
32321;SDS011;61553;48.994;8.940;2022-09-13T00:23:43;6.20;;;4.40;;
32321;SDS011;61553;48.994;8.940;2022-09-13T00:26:12;6.95;;;4.20;;
32321;SDS011;61553;48.994;8.940;2022-09-13T00:28:38;5.57;;;3.63;;
32321;SDS011;61553;48.994;8.940;2022-09-13T00:31:05;5.18;;;3.83;;
32321;SDS011;61553;48.994;8.940;2022-09-13T00:33:33;6.47;;;4.20;;
32321;SDS011;61553;48.994;8.940;2022-09-13T00:36:09;7.15;;;4.40;;
32321;SDS011;61553;48.994;8.940;2022-09-13T00:38:36;5.80;;;3.80;;
32321;SDS011;61553;48.994;8.940;2022-09-13T00:41:06;5.80;;;3.63;;
32321;SDS011;61553;48.994;8.940;2022-09-13T00:43:45;8.73;;;4.57;;
32321;SDS011;61553;48.994;8.940;2022-09-13T00:46:16;7.10;;;4.03;;
32321;SDS011;61553;48.994;8.940;2022-09-13T00:51:32;8.15;;;4.18;;
32321;SDS011;61553;48.994;8.940;2022-09-13T00:53:58;6.40;;;3.90;;
32321;SDS011;61553;48.994;8.940;2022-09-13T00:56:31;7.45;;;4.13;;
32321;SDS011;61553;48.994;8.940;2022-09-13T00:59:01;9.25;;;4.03;;
32321;SDS011;61553;48.994;8.940;2022-09-13T01:01:33;6.95;;;4.65;;
32321;SDS011;61553;48.994;8.940;2022-09-13T01:04:06;7.47;;;3.90;;
32321;SDS011;61553;48.994;8.940;2022-09-13T01:06:32;5.45;;;3.85;;
32321;SDS011;61553;48.994;8.940;2022-09-13T01:09:01;7.60;;;4.10;;
32321;SDS011;61553;48.994;8.940;2022-09-13T01:11:38;7.85;;;4.00;;
32321;SDS011;61553;48.994;8.940;2022-09-13T01:14:09;6.00;;;3.70;;
32321;SDS011;61553;48.994;8.940;2022-09-13T01:16:35;7.78;;;3.83;;
32321;SDS011;61553;48.994;8.940;2022-09-13T01:19:01;5.95;;;4.22;;
32321;SDS011;61553;48.994;8.940;2022-09-13T01:37:59;11.18;;;3.90;;
32321;SDS011;61553;48.994;8.940;2022-09-13T01:46:29;5.68;;;3.65;;
32321;SDS011;61553;48.994;8.940;2022-09-13T01:49:06;6.43;;;3.28;;
32321;SDS011;61553;48.994;8.940;2022-09-13T01:51:53;5.55;;;3.42;;
32321;SDS011;61553;48.994;8.940;2022-09-13T01:54:49;9.85;;;3.95;;
32321;SDS011;61553;48.994;8.940;2022-09-13T01:57:16;6.20;;;3.88;;
32321;SDS011;61553;48.994;8.940;2022-09-13T01:59:53;5.70;;;3.47;;
32321;SDS011;61553;48.994;8.940;2022-09-13T02:07:41;8.57;;;3.58;;
32321;SDS011;61553;48.994;8.940;2022-09-13T02:13:18;8.23;;;3.28;;
32321;SDS011;61553;48.994;8.940;2022-09-13T02:15:48;4.68;;;3.22;;
32321;SDS011;61553;48.994;8.940;2022-09-13T02:18:24;7.18;;;3.83;;
32321;SDS011;61553;48.994;8.940;2022-09-13T02:20:58;4.85;;;3.45;;
32321;SDS011;61553;48.994;8.940;2022-09-13T02:23:31;5.70;;;3.53;;
32321;SDS011;61553;48.994;8.940;2022-09-13T02:28:32;5.45;;;3.38;;
32321;SDS011;61553;48.994;8.940;2022-09-13T02:31:01;5.30;;;3.13;;
32321;SDS011;61553;48.994;8.940;2022-09-13T02:33:32;5.32;;;3.20;;
32321;SDS011;61553;48.994;8.940;2022-09-13T02:36:03;6.80;;;3.08;;
32321;SDS011;61553;48.994;8.940;2022-09-13T02:38:35;5.72;;;3.50;;
32321;SDS011;61553;48.994;8.940;2022-09-13T02:41:11;6.40;;;3.60;;
32321;SDS011;61553;48.994;8.940;2022-09-13T02:43:51;5.60;;;3.60;;
32321;SDS011;61553;48.994;8.940;2022-09-13T02:49:00;7.43;;;3.90;;
32321;SDS011;61553;48.994;8.940;2022-09-13T03:00:11;8.50;;;4.13;;
32321;SDS011;61553;48.994;8.940;2022-09-13T03:02:37;6.68;;;4.00;;
32321;SDS011;61553;48.994;8.940;2022-09-13T03:05:04;6.05;;;3.88;;
32321;SDS011;61553;48.994;8.940;2022-09-13T03:07:30;8.20;;;4.97;;
32321;SDS011;61553;48.994;8.940;2022-09-13T03:09:57;7.97;;;4.70;;
32321;SDS011;61553;48.994;8.940;2022-09-13T03:12:32;7.15;;;4.63;;
32321;SDS011;61553;48.994;8.940;2022-09-13T03:34:13;6.80;;;4.20;;
32321;SDS011;61553;48.994;8.940;2022-09-13T03:39:58;6.40;;;4.15;;
32321;SDS011;61553;48.994;8.940;2022-09-13T03:42:33;7.93;;;4.80;;
32321;SDS011;61553;48.994;8.940;2022-09-13T03:47:39;9.05;;;4.18;;
32321;SDS011;61553;48.994;8.940;2022-09-13T03:50:07;6.85;;;4.72;;
32321;SDS011;61553;48.994;8.940;2022-09-13T03:52:34;7.30;;;4.22;;
32321;SDS011;61553;48.994;8.940;2022-09-13T03:55:00;9.00;;;4.65;;
32321;SDS011;61553;48.994;8.940;2022-09-13T03:57:26;6.72;;;4.20;;
32321;SDS011;61553;48.994;8.940;2022-09-13T03:59:53;8.77;;;4.43;;
32321;SDS011;61553;48.994;8.940;2022-09-13T04:02:21;11.65;;;5.03;;
32321;SDS011;61553;48.994;8.940;2022-09-13T04:04:48;7.35;;;4.70;;
32321;SDS011;61553;48.994;8.940;2022-09-13T04:07:15;7.43;;;4.88;;
32321;SDS011;61553;48.994;8.940;2022-09-13T04:09:46;6.60;;;3.92;;
32321;SDS011;61553;48.994;8.940;2022-09-13T04:12:14;8.27;;;4.28;;
32321;SDS011;61553;48.994;8.940;2022-09-13T04:14:41;7.05;;;4.55;;
32321;SDS011;61553;48.994;8.940;2022-09-13T04:17:08;7.88;;;4.55;;
32321;SDS011;61553;48.994;8.940;2022-09-13T04:19:34;8.43;;;4.90;;
32321;SDS011;61553;48.994;8.940;2022-09-13T04:22:00;6.63;;;4.50;;
32321;SDS011;61553;48.994;8.940;2022-09-13T04:24:26;8.52;;;5.25;;
32321;SDS011;61553;48.994;8.940;2022-09-13T04:26:53;7.43;;;4.10;;
32321;SDS011;61553;48.994;8.940;2022-09-13T04:29:19;8.23;;;4.18;;
32321;SDS011;61553;48.994;8.940;2022-09-13T04:31:46;7.45;;;4.85;;
32321;SDS011;61553;48.994;8.940;2022-09-13T04:34:13;9.98;;;4.70;;
32321;SDS011;61553;48.994;8.940;2022-09-13T04:36:39;7.30;;;4.70;;
32321;SDS011;61553;48.994;8.940;2022-09-13T04:39:05;9.20;;;5.22;;
32321;SDS011;61553;48.994;8.940;2022-09-13T04:41:30;6.57;;;4.78;;
32321;SDS011;61553;48.994;8.940;2022-09-13T04:43:58;7.32;;;4.65;;
32321;SDS011;61553;48.994;8.940;2022-09-13T04:46:24;5.13;;;3.88;;
32321;SDS011;61553;48.994;8.940;2022-09-13T04:48:50;12.68;;;4.88;;
32321;SDS011;61553;48.994;8.940;2022-09-13T04:51:16;7.10;;;4.97;;
32321;SDS011;61553;48.994;8.940;2022-09-13T04:53:44;8.80;;;4.90;;
32321;SDS011;61553;48.994;8.940;2022-09-13T04:56:10;7.20;;;4.40;;
32321;SDS011;61553;48.994;8.940;2022-09-13T04:58:39;6.40;;;3.97;;
32321;SDS011;61553;48.994;8.940;2022-09-13T05:01:05;8.65;;;4.38;;
32321;SDS011;61553;48.994;8.940;2022-09-13T05:03:33;9.70;;;4.30;;
32321;SDS011;61553;48.994;8.940;2022-09-13T05:06:06;7.85;;;4.60;;
32321;SDS011;61553;48.994;8.940;2022-09-13T05:08:34;6.97;;;4.70;;
32321;SDS011;61553;48.994;8.940;2022-09-13T05:11:00;7.15;;;4.53;;
32321;SDS011;61553;48.994;8.940;2022-09-13T05:13:27;6.60;;;4.38;;
32321;SDS011;61553;48.994;8.940;2022-09-13T05:15:54;6.18;;;4.45;;
32321;SDS011;61553;48.994;8.940;2022-09-13T05:18:25;7.18;;;4.47;;
32321;SDS011;61553;48.994;8.940;2022-09-13T05:20:55;6.25;;;4.00;;
32321;SDS011;61553;48.994;8.940;2022-09-13T05:23:22;6.50;;;4.18;;
32321;SDS011;61553;48.994;8.940;2022-09-13T05:25:56;7.47;;;4.53;;
32321;SDS011;61553;48.994;8.940;2022-09-13T05:28:23;6.00;;;4.13;;
32321;SDS011;61553;48.994;8.940;2022-09-13T05:31:00;9.35;;;4.30;;
32321;SDS011;61553;48.994;8.940;2022-09-13T05:33:31;7.50;;;4.60;;
32321;SDS011;61553;48.994;8.940;2022-09-13T05:35:59;5.88;;;3.95;;
32321;SDS011;61553;48.994;8.940;2022-09-13T05:38:25;9.77;;;4.85;;
32321;SDS011;61553;48.994;8.940;2022-09-13T05:40:54;10.88;;;4.65;;
32321;SDS011;61553;48.994;8.940;2022-09-13T05:43:21;7.95;;;4.25;;
32321;SDS011;61553;48.994;8.940;2022-09-13T05:45:47;8.48;;;4.50;;
32321;SDS011;61553;48.994;8.940;2022-09-13T05:48:13;6.43;;;4.15;;
32321;SDS011;61553;48.994;8.940;2022-09-13T05:50:38;8.07;;;5.10;;
32321;SDS011;61553;48.994;8.940;2022-09-13T05:53:04;7.80;;;5.13;;
32321;SDS011;61553;48.994;8.940;2022-09-13T05:55:30;6.85;;;4.53;;
32321;SDS011;61553;48.994;8.940;2022-09-13T05:57:57;7.45;;;4.18;;
32321;SDS011;61553;48.994;8.940;2022-09-13T06:00:22;10.07;;;4.68;;
32321;SDS011;61553;48.994;8.940;2022-09-13T06:02:48;7.85;;;4.18;;
32321;SDS011;61553;48.994;8.940;2022-09-13T06:05:14;8.70;;;4.00;;
32321;SDS011;61553;48.994;8.940;2022-09-13T06:07:40;7.53;;;3.38;;
32321;SDS011;61553;48.994;8.940;2022-09-13T06:10:07;5.55;;;3.70;;
32321;SDS011;61553;48.994;8.940;2022-09-13T06:12:33;8.65;;;3.50;;
32321;SDS011;61553;48.994;8.940;2022-09-13T06:14:59;6.35;;;3.97;;
32321;SDS011;61553;48.994;8.940;2022-09-13T06:17:25;6.85;;;3.75;;
32321;SDS011;61553;48.994;8.940;2022-09-13T06:19:50;5.63;;;3.50;;
32321;SDS011;61553;48.994;8.940;2022-09-13T06:22:16;5.60;;;3.53;;
32321;SDS011;61553;48.994;8.940;2022-09-13T06:24:42;5.95;;;3.60;;
32321;SDS011;61553;48.994;8.940;2022-09-13T06:27:07;5.78;;;3.25;;
32321;SDS011;61553;48.994;8.940;2022-09-13T06:29:34;5.63;;;3.33;;
32321;SDS011;61553;48.994;8.940;2022-09-13T06:32:00;7.28;;;3.42;;
32321;SDS011;61553;48.994;8.940;2022-09-13T06:34:29;9.32;;;5.25;;
32321;SDS011;61553;48.994;8.940;2022-09-13T06:36:55;8.60;;;5.28;;
32321;SDS011;61553;48.994;8.940;2022-09-13T06:39:21;5.93;;;3.88;;
32321;SDS011;61553;48.994;8.940;2022-09-13T06:41:46;7.20;;;4.45;;
32321;SDS011;61553;48.994;8.940;2022-09-13T06:44:12;6.10;;;3.60;;
32321;SDS011;61553;48.994;8.940;2022-09-13T06:46:38;10.07;;;4.07;;
32321;SDS011;61553;48.994;8.940;2022-09-13T06:49:04;7.03;;;3.38;;
32321;SDS011;61553;48.994;8.940;2022-09-13T06:51:31;5.30;;;3.47;;
32321;SDS011;61553;48.994;8.940;2022-09-13T06:53:58;6.95;;;3.92;;
32321;SDS011;61553;48.994;8.940;2022-09-13T06:58:51;4.90;;;3.05;;
32321;SDS011;61553;48.994;8.940;2022-09-13T07:01:21;4.65;;;2.92;;
32321;SDS011;61553;48.994;8.940;2022-09-13T07:04:03;7.18;;;4.13;;
32321;SDS011;61553;48.994;8.940;2022-09-13T07:06:31;12.63;;;4.35;;
32321;SDS011;61553;48.994;8.940;2022-09-13T07:09:00;4.30;;;2.88;;
32321;SDS011;61553;48.994;8.940;2022-09-13T07:11:29;6.45;;;3.20;;
32321;SDS011;61553;48.994;8.940;2022-09-13T07:13:57;7.45;;;3.03;;
32321;SDS011;61553;48.994;8.940;2022-09-13T07:16:24;10.15;;;3.20;;
32321;SDS011;61553;48.994;8.940;2022-09-13T07:18:52;4.97;;;2.85;;
32321;SDS011;61553;48.994;8.940;2022-09-13T07:21:22;8.35;;;3.00;;
32321;SDS011;61553;48.994;8.940;2022-09-13T07:23:48;8.80;;;3.13;;
32321;SDS011;61553;48.994;8.940;2022-09-13T07:26:15;6.45;;;2.80;;
32321;SDS011;61553;48.994;8.940;2022-09-13T07:28:42;5.78;;;3.00;;
32321;SDS011;61553;48.994;8.940;2022-09-13T07:31:10;7.68;;;3.70;;
32321;SDS011;61553;48.994;8.940;2022-09-13T07:33:38;4.55;;;2.72;;
32321;SDS011;61553;48.994;8.940;2022-09-13T07:36:05;8.68;;;3.42;;
32321;SDS011;61553;48.994;8.940;2022-09-13T07:38:34;7.00;;;3.47;;
32321;SDS011;61553;48.994;8.940;2022-09-13T07:41:02;8.27;;;3.35;;
32321;SDS011;61553;48.994;8.940;2022-09-13T07:43:30;6.93;;;3.30;;
32321;SDS011;61553;48.994;8.940;2022-09-13T07:46:05;7.10;;;3.20;;
32321;SDS011;61553;48.994;8.940;2022-09-13T07:48:33;5.07;;;3.22;;
32321;SDS011;61553;48.994;8.940;2022-09-13T07:51:01;5.38;;;3.15;;
32321;SDS011;61553;48.994;8.940;2022-09-13T07:53:29;5.80;;;3.13;;
32321;SDS011;61553;48.994;8.940;2022-09-13T07:56:06;5.80;;;3.22;;
32321;SDS011;61553;48.994;8.940;2022-09-13T07:58:34;5.30;;;3.03;;
32321;SDS011;61553;48.994;8.940;2022-09-13T08:01:04;6.03;;;3.45;;
32321;SDS011;61553;48.994;8.940;2022-09-13T08:03:31;5.45;;;3.00;;
32321;SDS011;61553;48.994;8.940;2022-09-13T08:05:58;7.32;;;3.38;;
32321;SDS011;61553;48.994;8.940;2022-09-13T08:08:24;7.15;;;3.33;;
32321;SDS011;61553;48.994;8.940;2022-09-13T08:10:49;4.88;;;3.30;;
32321;SDS011;61553;48.994;8.940;2022-09-13T08:13:15;6.18;;;3.60;;
32321;SDS011;61553;48.994;8.940;2022-09-13T08:15:41;8.18;;;3.28;;
32321;SDS011;61553;48.994;8.940;2022-09-13T08:18:07;6.53;;;3.30;;
32321;SDS011;61553;48.994;8.940;2022-09-13T08:20:37;5.32;;;2.70;;
32321;SDS011;61553;48.994;8.940;2022-09-13T08:23:03;6.47;;;3.50;;
32321;SDS011;61553;48.994;8.940;2022-09-13T08:25:31;4.70;;;3.00;;
32321;SDS011;61553;48.994;8.940;2022-09-13T08:27:59;7.45;;;3.47;;
32321;SDS011;61553;48.994;8.940;2022-09-13T08:30:25;8.82;;;3.70;;
32321;SDS011;61553;48.994;8.940;2022-09-13T08:32:57;8.70;;;3.17;;
32321;SDS011;61553;48.994;8.940;2022-09-13T08:35:24;7.35;;;3.00;;
32321;SDS011;61553;48.994;8.940;2022-09-13T08:37:49;7.88;;;2.75;;
32321;SDS011;61553;48.994;8.940;2022-09-13T08:40:15;7.05;;;2.92;;
32321;SDS011;61553;48.994;8.940;2022-09-13T08:42:52;8.75;;;3.13;;
32321;SDS011;61553;48.994;8.940;2022-09-13T08:45:33;9.23;;;2.88;;
32321;SDS011;61553;48.994;8.940;2022-09-13T08:48:03;5.47;;;2.83;;
32321;SDS011;61553;48.994;8.940;2022-09-13T08:50:35;8.18;;;2.78;;
32321;SDS011;61553;48.994;8.940;2022-09-13T09:06:21;7.75;;;2.70;;
32321;SDS011;61553;48.994;8.940;2022-09-13T09:08:52;6.43;;;2.65;;
32321;SDS011;61553;48.994;8.940;2022-09-13T09:11:31;5.40;;;2.40;;
32321;SDS011;61553;48.994;8.940;2022-09-13T09:17:05;6.75;;;2.20;;
32321;SDS011;61553;48.994;8.940;2022-09-13T09:19:39;5.05;;;2.58;;
32321;SDS011;61553;48.994;8.940;2022-09-13T09:22:10;6.07;;;2.42;;
32321;SDS011;61553;48.994;8.940;2022-09-13T09:24:43;4.75;;;2.38;;
32321;SDS011;61553;48.994;8.940;2022-09-13T09:27:15;4.20;;;2.03;;
32321;SDS011;61553;48.994;8.940;2022-09-13T09:29:43;8.07;;;2.35;;
32321;SDS011;61553;48.994;8.940;2022-09-13T09:32:50;5.13;;;2.13;;
32321;SDS011;61553;48.994;8.940;2022-09-13T09:38:35;6.00;;;2.00;;
32321;SDS011;61553;48.994;8.940;2022-09-13T09:46:44;2.92;;;1.75;;
32321;SDS011;61553;48.994;8.940;2022-09-13T09:49:17;5.97;;;1.88;;
32321;SDS011;61553;48.994;8.940;2022-09-13T09:52:28;5.18;;;1.90;;
32321;SDS011;61553;48.994;8.940;2022-09-13T09:55:29;4.57;;;1.70;;
32321;SDS011;61553;48.994;8.940;2022-09-13T09:58:02;4.35;;;2.13;;
32321;SDS011;61553;48.994;8.940;2022-09-13T10:00:33;6.63;;;2.25;;
32321;SDS011;61553;48.994;8.940;2022-09-13T10:05:31;2.97;;;1.73;;
32321;SDS011;61553;48.994;8.940;2022-09-13T10:07:59;4.30;;;1.73;;
32321;SDS011;61553;48.994;8.940;2022-09-13T10:13:11;7.28;;;2.25;;
32321;SDS011;61553;48.994;8.940;2022-09-13T10:15:50;8.63;;;2.50;;
32321;SDS011;61553;48.994;8.940;2022-09-13T10:18:25;6.03;;;2.60;;
32321;SDS011;61553;48.994;8.940;2022-09-13T10:23:27;5.82;;;2.42;;
32321;SDS011;61553;48.994;8.940;2022-09-13T10:25:54;6.22;;;2.50;;
32321;SDS011;61553;48.994;8.940;2022-09-13T10:28:24;5.50;;;2.47;;
32321;SDS011;61553;48.994;8.940;2022-09-13T10:30:52;5.63;;;2.70;;
32321;SDS011;61553;48.994;8.940;2022-09-13T10:33:32;4.93;;;2.50;;
32321;SDS011;61553;48.994;8.940;2022-09-13T10:36:02;4.15;;;2.40;;
32321;SDS011;61553;48.994;8.940;2022-09-13T10:38:38;7.53;;;2.78;;
32321;SDS011;61553;48.994;8.940;2022-09-13T10:41:06;6.80;;;2.75;;
32321;SDS011;61553;48.994;8.940;2022-09-13T10:43:34;6.70;;;2.55;;
32321;SDS011;61553;48.994;8.940;2022-09-13T10:46:02;6.10;;;2.03;;
32321;SDS011;61553;48.994;8.940;2022-09-13T10:48:30;3.45;;;2.08;;
32321;SDS011;61553;48.994;8.940;2022-09-13T10:54:05;4.70;;;2.30;;
32321;SDS011;61553;48.994;8.940;2022-09-13T10:56:48;7.35;;;1.98;;
32321;SDS011;61553;48.994;8.940;2022-09-13T10:59:24;4.18;;;2.20;;
32321;SDS011;61553;48.994;8.940;2022-09-13T11:04:55;3.88;;;1.75;;
32321;SDS011;61553;48.994;8.940;2022-09-13T11:12:39;3.72;;;1.48;;
32321;SDS011;61553;48.994;8.940;2022-09-13T11:15:20;4.20;;;1.38;;
32321;SDS011;61553;48.994;8.940;2022-09-13T11:42:33;3.33;;;0.73;;
32321;SDS011;61553;48.994;8.940;2022-09-13T11:53:52;2.03;;;1.10;;
32321;SDS011;61553;48.994;8.940;2022-09-13T12:01:56;1.83;;;0.75;;
32321;SDS011;61553;48.994;8.940;2022-09-13T12:04:32;6.32;;;1.05;;
32321;SDS011;61553;48.994;8.940;2022-09-13T12:07:09;1.88;;;0.93;;
32321;SDS011;61553;48.994;8.940;2022-09-13T12:09:46;2.65;;;0.98;;
32321;SDS011;61553;48.994;8.940;2022-09-13T12:12:20;3.22;;;0.80;;
32321;SDS011;61553;48.994;8.940;2022-09-13T12:15:06;1.40;;;0.70;;
32321;SDS011;61553;48.994;8.940;2022-09-13T12:17:47;2.00;;;0.80;;
32321;SDS011;61553;48.994;8.940;2022-09-13T12:22:49;2.10;;;0.80;;
32321;SDS011;61553;48.994;8.940;2022-09-13T12:25:22;1.23;;;0.63;;
32321;SDS011;61553;48.994;8.940;2022-09-13T12:30:49;3.35;;;0.98;;
32321;SDS011;61553;48.994;8.940;2022-09-13T12:33:43;2.80;;;1.00;;
32321;SDS011;61553;48.994;8.940;2022-09-13T12:46:54;3.75;;;1.05;;
32321;SDS011;61553;48.994;8.940;2022-09-13T12:49:43;2.83;;;0.95;;
32321;SDS011;61553;48.994;8.940;2022-09-13T12:58:29;1.00;;;0.65;;
32321;SDS011;61553;48.994;8.940;2022-09-13T13:01:19;5.53;;;1.20;;
32321;SDS011;61553;48.994;8.940;2022-09-13T13:08:53;3.85;;;0.80;;
32321;SDS011;61553;48.994;8.940;2022-09-13T13:11:26;2.25;;;1.10;;
32321;SDS011;61553;48.994;8.940;2022-09-13T13:13:59;2.13;;;0.90;;
32321;SDS011;61553;48.994;8.940;2022-09-13T13:16:36;3.50;;;0.90;;
32321;SDS011;61553;48.994;8.940;2022-09-13T13:25:08;1.17;;;0.77;;
32321;SDS011;61553;48.994;8.940;2022-09-13T13:27:53;3.72;;;1.13;;
32321;SDS011;61553;48.994;8.940;2022-09-13T13:33:15;3.88;;;0.93;;
32321;SDS011;61553;48.994;8.940;2022-09-13T13:35:43;3.70;;;1.20;;
32321;SDS011;61553;48.994;8.940;2022-09-13T13:38:13;3.90;;;0.90;;
32321;SDS011;61553;48.994;8.940;2022-09-13T13:41:04;2.45;;;1.00;;
32321;SDS011;61553;48.994;8.940;2022-09-13T13:43:33;4.60;;;0.90;;
32321;SDS011;61553;48.994;8.940;2022-09-13T13:48:37;3.25;;;1.00;;
32321;SDS011;61553;48.994;8.940;2022-09-13T13:53:40;2.28;;;1.00;;
32321;SDS011;61553;48.994;8.940;2022-09-13T13:56:19;2.22;;;0.90;;
32321;SDS011;61553;48.994;8.940;2022-09-13T13:59:08;3.58;;;1.00;;
32321;SDS011;61553;48.994;8.940;2022-09-13T14:01:38;3.53;;;1.20;;
32321;SDS011;61553;48.994;8.940;2022-09-13T14:04:27;2.00;;;1.00;;
32321;SDS011;61553;48.994;8.940;2022-09-13T14:07:01;3.67;;;1.00;;
32321;SDS011;61553;48.994;8.940;2022-09-13T14:09:34;2.92;;;1.13;;
32321;SDS011;61553;48.994;8.940;2022-09-13T14:20:33;3.50;;;0.95;;
32321;SDS011;61553;48.994;8.940;2022-09-13T14:23:17;3.08;;;1.02;;
32321;SDS011;61553;48.994;8.940;2022-09-13T14:25:44;4.82;;;1.20;;
32321;SDS011;61553;48.994;8.940;2022-09-13T14:28:15;6.38;;;1.05;;
32321;SDS011;61553;48.994;8.940;2022-09-13T14:30:45;2.70;;;1.00;;
32321;SDS011;61553;48.994;8.940;2022-09-13T14:33:21;5.00;;;1.13;;
32321;SDS011;61553;48.994;8.940;2022-09-13T14:35:59;4.45;;;1.10;;
32321;SDS011;61553;48.994;8.940;2022-09-13T14:38:28;3.80;;;1.10;;
32321;SDS011;61553;48.994;8.940;2022-09-13T14:41:00;2.67;;;0.90;;
32321;SDS011;61553;48.994;8.940;2022-09-13T14:43:27;2.22;;;0.95;;
32321;SDS011;61553;48.994;8.940;2022-09-13T14:45:57;5.63;;;1.33;;
32321;SDS011;61553;48.994;8.940;2022-09-13T14:48:31;0.98;;;0.70;;
32321;SDS011;61553;48.994;8.940;2022-09-13T14:51:15;7.00;;;1.27;;
32321;SDS011;61553;48.994;8.940;2022-09-13T14:53:46;2.95;;;0.88;;
32321;SDS011;61553;48.994;8.940;2022-09-13T14:56:17;3.75;;;1.08;;
32321;SDS011;61553;48.994;8.940;2022-09-13T14:58:50;2.22;;;0.90;;
32321;SDS011;61553;48.994;8.940;2022-09-13T15:01:21;2.80;;;1.00;;
32321;SDS011;61553;48.994;8.940;2022-09-13T15:03:53;2.83;;;1.00;;
32321;SDS011;61553;48.994;8.940;2022-09-13T15:06:22;4.47;;;1.30;;
32321;SDS011;61553;48.994;8.940;2022-09-13T15:08:50;6.60;;;1.15;;
32321;SDS011;61553;48.994;8.940;2022-09-13T15:11:30;2.40;;;1.10;;
32321;SDS011;61553;48.994;8.940;2022-09-13T15:14:02;4.85;;;0.90;;
32321;SDS011;61553;48.994;8.940;2022-09-13T15:17:26;4.50;;;1.08;;
32321;SDS011;61553;48.994;8.940;2022-09-13T15:19:40;2.05;;;0.90;;
32321;SDS011;61553;48.994;8.940;2022-09-13T15:22:21;5.00;;;1.10;;
32321;SDS011;61553;48.994;8.940;2022-09-13T15:24:55;2.72;;;1.00;;
32321;SDS011;61553;48.994;8.940;2022-09-13T15:27:26;2.78;;;0.95;;
32321;SDS011;61553;48.994;8.940;2022-09-13T15:29:55;3.70;;;0.85;;
32321;SDS011;61553;48.994;8.940;2022-09-13T15:32:28;2.30;;;0.90;;
32321;SDS011;61553;48.994;8.940;2022-09-13T15:35:15;4.85;;;1.00;;
32321;SDS011;61553;48.994;8.940;2022-09-13T15:38:06;2.70;;;1.13;;
32321;SDS011;61553;48.994;8.940;2022-09-13T15:40:42;4.30;;;1.10;;
32321;SDS011;61553;48.994;8.940;2022-09-13T15:43:10;3.33;;;1.30;;
32321;SDS011;61553;48.994;8.940;2022-09-13T15:45:36;5.20;;;1.80;;
32321;SDS011;61553;48.994;8.940;2022-09-13T15:48:01;3.47;;;1.30;;
32321;SDS011;61553;48.994;8.940;2022-09-13T15:50:29;3.45;;;1.35;;
32321;SDS011;61553;48.994;8.940;2022-09-13T15:52:59;5.47;;;1.33;;
32321;SDS011;61553;48.994;8.940;2022-09-13T15:55:26;2.17;;;1.02;;
32321;SDS011;61553;48.994;8.940;2022-09-13T15:57:52;2.38;;;1.10;;
32321;SDS011;61553;48.994;8.940;2022-09-13T16:00:21;2.90;;;1.10;;
32321;SDS011;61553;48.994;8.940;2022-09-13T16:02:48;2.63;;;1.30;;
32321;SDS011;61553;48.994;8.940;2022-09-13T16:05:14;3.08;;;1.40;;
32321;SDS011;61553;48.994;8.940;2022-09-13T16:07:41;3.55;;;1.23;;
32321;SDS011;61553;48.994;8.940;2022-09-13T16:10:26;2.88;;;1.58;;
32321;SDS011;61553;48.994;8.940;2022-09-13T16:12:52;5.18;;;1.25;;
32321;SDS011;61553;48.994;8.940;2022-09-13T16:15:18;3.95;;;1.48;;
32321;SDS011;61553;48.994;8.940;2022-09-13T16:17:44;2.70;;;1.08;;
32321;SDS011;61553;48.994;8.940;2022-09-13T16:20:13;3.20;;;1.15;;
32321;SDS011;61553;48.994;8.940;2022-09-13T16:22:40;8.30;;;1.60;;
32321;SDS011;61553;48.994;8.940;2022-09-13T16:25:06;4.88;;;1.60;;
32321;SDS011;61553;48.994;8.940;2022-09-13T16:27:33;2.15;;;1.20;;
32321;SDS011;61553;48.994;8.940;2022-09-13T16:29:59;4.38;;;1.42;;
32321;SDS011;61553;48.994;8.940;2022-09-13T16:32:25;6.88;;;1.40;;
32321;SDS011;61553;48.994;8.940;2022-09-13T16:34:51;4.82;;;1.40;;
32321;SDS011;61553;48.994;8.940;2022-09-13T16:37:17;7.32;;;1.40;;
32321;SDS011;61553;48.994;8.940;2022-09-13T16:39:43;3.85;;;1.60;;
32321;SDS011;61553;48.994;8.940;2022-09-13T16:42:10;2.92;;;1.40;;
32321;SDS011;61553;48.994;8.940;2022-09-13T16:44:36;2.83;;;1.40;;
32321;SDS011;61553;48.994;8.940;2022-09-13T16:47:02;5.80;;;1.60;;
32321;SDS011;61553;48.994;8.940;2022-09-13T16:49:28;10.95;;;2.30;;
32321;SDS011;61553;48.994;8.940;2022-09-13T16:51:54;5.97;;;1.70;;
32321;SDS011;61553;48.994;8.940;2022-09-13T16:54:23;7.05;;;1.98;;
32321;SDS011;61553;48.994;8.940;2022-09-13T16:56:50;6.97;;;1.67;;
32321;SDS011;61553;48.994;8.940;2022-09-13T16:59:16;9.45;;;2.60;;
32321;SDS011;61553;48.994;8.940;2022-09-13T17:01:42;7.15;;;2.00;;
32321;SDS011;61553;48.994;8.940;2022-09-13T17:04:07;4.90;;;1.50;;
32321;SDS011;61553;48.994;8.940;2022-09-13T17:06:35;1.77;;;1.10;;
32321;SDS011;61553;48.994;8.940;2022-09-13T17:09:02;3.78;;;1.20;;
32321;SDS011;61553;48.994;8.940;2022-09-13T17:11:30;5.38;;;1.40;;
32321;SDS011;61553;48.994;8.940;2022-09-13T17:13:58;11.50;;;1.60;;
32321;SDS011;61553;48.994;8.940;2022-09-13T17:16:29;5.35;;;2.00;;
32321;SDS011;61553;48.994;8.940;2022-09-13T17:19:01;8.55;;;1.60;;
32321;SDS011;61553;48.994;8.940;2022-09-13T17:21:28;6.90;;;1.85;;
32321;SDS011;61553;48.994;8.940;2022-09-13T17:23:55;5.00;;;1.92;;
32321;SDS011;61553;48.994;8.940;2022-09-13T17:26:21;5.53;;;1.73;;
32321;SDS011;61553;48.994;8.940;2022-09-13T17:28:47;7.45;;;2.40;;
32321;SDS011;61553;48.994;8.940;2022-09-13T17:31:12;4.32;;;1.50;;
32321;SDS011;61553;48.994;8.940;2022-09-13T17:33:39;4.68;;;1.67;;
32321;SDS011;61553;48.994;8.940;2022-09-13T17:36:06;7.13;;;1.75;;
32321;SDS011;61553;48.994;8.940;2022-09-13T17:38:34;4.47;;;1.35;;
32321;SDS011;61553;48.994;8.940;2022-09-13T17:41:05;3.67;;;1.48;;
32321;SDS011;61553;48.994;8.940;2022-09-13T17:43:33;7.43;;;1.45;;
32321;SDS011;61553;48.994;8.940;2022-09-13T17:46:03;3.95;;;1.42;;
32321;SDS011;61553;48.994;8.940;2022-09-13T17:48:34;5.70;;;1.55;;
32321;SDS011;61553;48.994;8.940;2022-09-13T17:51:01;6.60;;;1.75;;
32321;SDS011;61553;48.994;8.940;2022-09-13T17:53:35;8.73;;;2.83;;
32321;SDS011;61553;48.994;8.940;2022-09-13T17:56:02;6.68;;;2.25;;
32321;SDS011;61553;48.994;8.940;2022-09-13T17:58:28;5.68;;;2.25;;
32321;SDS011;61553;48.994;8.940;2022-09-13T18:01:03;6.82;;;2.15;;
32321;SDS011;61553;48.994;8.940;2022-09-13T18:03:33;6.07;;;1.88;;
32321;SDS011;61553;48.994;8.940;2022-09-13T18:06:00;5.05;;;1.88;;
32321;SDS011;61553;48.994;8.940;2022-09-13T18:08:27;4.00;;;1.60;;
32321;SDS011;61553;48.994;8.940;2022-09-13T18:11:00;6.40;;;2.08;;
32321;SDS011;61553;48.994;8.940;2022-09-13T18:13:26;3.85;;;1.77;;
32321;SDS011;61553;48.994;8.940;2022-09-13T18:16:05;4.22;;;1.83;;
32321;SDS011;61553;48.994;8.940;2022-09-13T18:18:33;3.75;;;1.85;;
32321;SDS011;61553;48.994;8.940;2022-09-13T18:21:00;5.70;;;2.00;;
32321;SDS011;61553;48.994;8.940;2022-09-13T18:23:26;8.23;;;3.08;;
32321;SDS011;61553;48.994;8.940;2022-09-13T18:25:59;4.75;;;2.38;;
32321;SDS011;61553;48.994;8.940;2022-09-13T18:28:29;5.55;;;2.65;;
32321;SDS011;61553;48.994;8.940;2022-09-13T18:30:57;7.88;;;2.70;;
32321;SDS011;61553;48.994;8.940;2022-09-13T18:33:25;6.57;;;2.00;;
32321;SDS011;61553;48.994;8.940;2022-09-13T18:35:58;5.68;;;2.30;;